sensor_id;sensor_type;location;lat;lon;timestamp;temperature;humidity
33927;DHT22;20485;50.992;5.550;2022-08-18T00:01:18;16.10;99.90
33927;DHT22;20485;50.992;5.550;2022-08-18T00:03:44;16.00;99.90
33927;DHT22;20485;50.992;5.550;2022-08-18T00:06:10;16.00;99.90
33927;DHT22;20485;50.992;5.550;2022-08-18T00:08:37;16.00;99.90
33927;DHT22;20485;50.992;5.550;2022-08-18T00:11:04;16.00;99.90
33927;DHT22;20485;50.992;5.550;2022-08-18T00:13:30;16.00;99.90
33927;DHT22;20485;50.992;5.550;2022-08-18T00:15:56;16.00;99.90
33927;DHT22;20485;50.992;5.550;2022-08-18T00:18:21;15.90;99.90
33927;DHT22;20485;50.992;5.550;2022-08-18T00:20:49;16.00;99.90
33927;DHT22;20485;50.992;5.550;2022-08-18T00:23:15;16.00;99.90
33927;DHT22;20485;50.992;5.550;2022-08-18T00:25:41;16.10;99.90
33927;DHT22;20485;50.992;5.550;2022-08-18T00:28:18;16.10;99.90
33927;DHT22;20485;50.992;5.550;2022-08-18T00:30:43;16.10;99.90
33927;DHT22;20485;50.992;5.550;2022-08-18T00:33:09;16.20;99.90
33927;DHT22;20485;50.992;5.550;2022-08-18T00:35:36;16.20;99.90
33927;DHT22;20485;50.992;5.550;2022-08-18T00:38:04;16.20;99.90
33927;DHT22;20485;50.992;5.550;2022-08-18T00:40:36;16.20;99.90
33927;DHT22;20485;50.992;5.550;2022-08-18T00:43:05;16.30;99.90
33927;DHT22;20485;50.992;5.550;2022-08-18T00:45:34;16.30;99.90
33927;DHT22;20485;50.992;5.550;2022-08-18T00:48:01;16.40;99.90
33927;DHT22;20485;50.992;5.550;2022-08-18T00:50:31;16.40;99.90
33927;DHT22;20485;50.992;5.550;2022-08-18T00:53:02;16.50;99.90
33927;DHT22;20485;50.992;5.550;2022-08-18T00:55:31;16.50;99.90
33927;DHT22;20485;50.992;5.550;2022-08-18T00:58:03;16.60;99.90
33927;DHT22;20485;50.992;5.550;2022-08-18T01:00:31;16.60;99.90
33927;DHT22;20485;50.992;5.550;2022-08-18T01:03:01;16.70;99.90
33927;DHT22;20485;50.992;5.550;2022-08-18T01:05:36;16.70;99.90
33927;DHT22;20485;50.992;5.550;2022-08-18T01:08:05;16.70;99.90
33927;DHT22;20485;50.992;5.550;2022-08-18T01:10:35;16.70;99.90
33927;DHT22;20485;50.992;5.550;2022-08-18T01:13:02;16.70;99.90
33927;DHT22;20485;50.992;5.550;2022-08-18T01:15:27;16.80;99.90
33927;DHT22;20485;50.992;5.550;2022-08-18T01:17:54;16.80;99.90
33927;DHT22;20485;50.992;5.550;2022-08-18T01:23:49;16.80;99.90
33927;DHT22;20485;50.992;5.550;2022-08-18T01:26:17;16.90;99.90
33927;DHT22;20485;50.992;5.550;2022-08-18T01:28:45;16.90;99.90
33927;DHT22;20485;50.992;5.550;2022-08-18T01:31:22;16.90;99.90
33927;DHT22;20485;50.992;5.550;2022-08-18T01:33:53;16.90;99.90
33927;DHT22;20485;50.992;5.550;2022-08-18T01:36:21;16.90;99.90
33927;DHT22;20485;50.992;5.550;2022-08-18T01:38:51;16.90;99.90
33927;DHT22;20485;50.992;5.550;2022-08-18T01:41:19;16.90;99.90
33927;DHT22;20485;50.992;5.550;2022-08-18T01:43:52;16.90;99.90
33927;DHT22;20485;50.992;5.550;2022-08-18T01:46:19;17.00;99.90
33927;DHT22;20485;50.992;5.550;2022-08-18T01:48:46;17.00;99.90
33927;DHT22;20485;50.992;5.550;2022-08-18T01:51:14;17.00;99.90
33927;DHT22;20485;50.992;5.550;2022-08-18T01:53:40;16.90;99.90
33927;DHT22;20485;50.992;5.550;2022-08-18T01:56:06;16.90;99.90
33927;DHT22;20485;50.992;5.550;2022-08-18T01:58:33;17.00;99.90
33927;DHT22;20485;50.992;5.550;2022-08-18T02:01:00;17.00;99.90
33927;DHT22;20485;50.992;5.550;2022-08-18T02:03:36;16.90;99.90
33927;DHT22;20485;50.992;5.550;2022-08-18T02:06:04;16.90;99.90
33927;DHT22;20485;50.992;5.550;2022-08-18T02:08:31;17.00;99.90
33927;DHT22;20485;50.992;5.550;2022-08-18T02:10:57;17.00;99.90
33927;DHT22;20485;50.992;5.550;2022-08-18T02:13:24;17.00;99.90
33927;DHT22;20485;50.992;5.550;2022-08-18T02:15:50;17.00;99.90
33927;DHT22;20485;50.992;5.550;2022-08-18T02:18:18;17.00;99.90
33927;DHT22;20485;50.992;5.550;2022-08-18T02:20:44;17.00;99.90
33927;DHT22;20485;50.992;5.550;2022-08-18T02:23:10;17.00;99.90
33927;DHT22;20485;50.992;5.550;2022-08-18T02:25:37;17.00;99.90
33927;DHT22;20485;50.992;5.550;2022-08-18T02:28:04;17.00;99.90
33927;DHT22;20485;50.992;5.550;2022-08-18T02:30:29;17.00;99.90
33927;DHT22;20485;50.992;5.550;2022-08-18T02:32:58;17.00;99.90
33927;DHT22;20485;50.992;5.550;2022-08-18T02:35:24;17.00;99.90
33927;DHT22;20485;50.992;5.550;2022-08-18T02:37:51;17.00;99.90
33927;DHT22;20485;50.992;5.550;2022-08-18T02:40:18;17.10;99.90
33927;DHT22;20485;50.992;5.550;2022-08-18T02:42:45;17.10;99.90
33927;DHT22;20485;50.992;5.550;2022-08-18T02:45:12;17.10;99.90
33927;DHT22;20485;50.992;5.550;2022-08-18T02:47:38;17.00;99.90
33927;DHT22;20485;50.992;5.550;2022-08-18T02:50:05;17.10;99.90
33927;DHT22;20485;50.992;5.550;2022-08-18T02:54:56;17.00;99.90
33927;DHT22;20485;50.992;5.550;2022-08-18T02:57:22;17.10;99.90
33927;DHT22;20485;50.992;5.550;2022-08-18T02:59:48;17.00;99.90
33927;DHT22;20485;50.992;5.550;2022-08-18T03:02:13;17.00;99.90
33927;DHT22;20485;50.992;5.550;2022-08-18T03:04:39;17.00;99.90
33927;DHT22;20485;50.992;5.550;2022-08-18T03:07:07;17.00;99.90
33927;DHT22;20485;50.992;5.550;2022-08-18T03:09:34;17.00;99.90
33927;DHT22;20485;50.992;5.550;2022-08-18T03:12:00;17.00;99.90
33927;DHT22;20485;50.992;5.550;2022-08-18T03:14:27;17.10;99.90
33927;DHT22;20485;50.992;5.550;2022-08-18T03:16:53;17.00;99.90
33927;DHT22;20485;50.992;5.550;2022-08-18T03:19:18;17.10;99.90
33927;DHT22;20485;50.992;5.550;2022-08-18T03:21:46;17.00;99.90
33927;DHT22;20485;50.992;5.550;2022-08-18T03:24:12;17.10;99.90
33927;DHT22;20485;50.992;5.550;2022-08-18T03:26:43;17.10;99.90
33927;DHT22;20485;50.992;5.550;2022-08-18T03:29:10;17.00;99.90
33927;DHT22;20485;50.992;5.550;2022-08-18T03:31:37;17.00;99.90
33927;DHT22;20485;50.992;5.550;2022-08-18T03:34:05;17.00;99.90
33927;DHT22;20485;50.992;5.550;2022-08-18T03:36:32;17.00;99.90
33927;DHT22;20485;50.992;5.550;2022-08-18T03:39:01;17.00;99.90
33927;DHT22;20485;50.992;5.550;2022-08-18T03:41:28;17.00;99.90
33927;DHT22;20485;50.992;5.550;2022-08-18T03:43:54;17.00;99.90
33927;DHT22;20485;50.992;5.550;2022-08-18T03:46:21;16.90;99.90
33927;DHT22;20485;50.992;5.550;2022-08-18T03:48:48;17.00;99.90
33927;DHT22;20485;50.992;5.550;2022-08-18T03:51:22;17.00;99.90
33927;DHT22;20485;50.992;5.550;2022-08-18T03:53:50;17.00;99.90
33927;DHT22;20485;50.992;5.550;2022-08-18T03:56:21;17.00;99.90
33927;DHT22;20485;50.992;5.550;2022-08-18T03:58:56;17.00;99.90
33927;DHT22;20485;50.992;5.550;2022-08-18T04:01:26;17.00;99.90
33927;DHT22;20485;50.992;5.550;2022-08-18T04:03:57;17.00;99.90
33927;DHT22;20485;50.992;5.550;2022-08-18T04:06:27;17.00;99.90
33927;DHT22;20485;50.992;5.550;2022-08-18T04:08:54;17.00;99.90
33927;DHT22;20485;50.992;5.550;2022-08-18T04:11:22;17.10;99.90
33927;DHT22;20485;50.992;5.550;2022-08-18T04:13:48;17.10;99.90
33927;DHT22;20485;50.992;5.550;2022-08-18T04:16:15;17.10;99.90
33927;DHT22;20485;50.992;5.550;2022-08-18T04:18:41;17.10;99.90
33927;DHT22;20485;50.992;5.550;2022-08-18T04:21:09;17.10;99.90
33927;DHT22;20485;50.992;5.550;2022-08-18T04:23:36;17.10;99.90
33927;DHT22;20485;50.992;5.550;2022-08-18T04:26:04;17.10;99.90
33927;DHT22;20485;50.992;5.550;2022-08-18T04:28:32;17.10;99.90
33927;DHT22;20485;50.992;5.550;2022-08-18T04:31:04;17.10;99.90
33927;DHT22;20485;50.992;5.550;2022-08-18T04:33:30;17.10;99.90
33927;DHT22;20485;50.992;5.550;2022-08-18T04:35:55;17.10;99.90
33927;DHT22;20485;50.992;5.550;2022-08-18T04:38:21;17.10;99.90
33927;DHT22;20485;50.992;5.550;2022-08-18T04:40:47;17.20;99.90
33927;DHT22;20485;50.992;5.550;2022-08-18T04:43:13;17.20;99.90
33927;DHT22;20485;50.992;5.550;2022-08-18T04:45:46;17.20;99.90
33927;DHT22;20485;50.992;5.550;2022-08-18T04:48:13;17.20;99.90
33927;DHT22;20485;50.992;5.550;2022-08-18T04:50:44;17.20;99.90
33927;DHT22;20485;50.992;5.550;2022-08-18T04:53:10;17.20;99.90
33927;DHT22;20485;50.992;5.550;2022-08-18T04:55:54;17.20;99.90
33927;DHT22;20485;50.992;5.550;2022-08-18T04:58:22;17.20;99.90
33927;DHT22;20485;50.992;5.550;2022-08-18T05:00:59;17.20;99.90
33927;DHT22;20485;50.992;5.550;2022-08-18T05:03:25;17.20;99.90
33927;DHT22;20485;50.992;5.550;2022-08-18T05:05:56;17.20;99.90
33927;DHT22;20485;50.992;5.550;2022-08-18T05:08:25;17.20;99.90
33927;DHT22;20485;50.992;5.550;2022-08-18T05:10:55;17.20;99.90
33927;DHT22;20485;50.992;5.550;2022-08-18T05:13:25;17.20;99.90
33927;DHT22;20485;50.992;5.550;2022-08-18T05:15:54;17.20;99.90
33927;DHT22;20485;50.992;5.550;2022-08-18T05:18:25;17.20;99.90
33927;DHT22;20485;50.992;5.550;2022-08-18T05:20:53;17.30;99.90
33927;DHT22;20485;50.992;5.550;2022-08-18T05:23:20;17.30;99.90
33927;DHT22;20485;50.992;5.550;2022-08-18T05:25:47;17.30;99.90
33927;DHT22;20485;50.992;5.550;2022-08-18T05:28:13;17.40;99.90
33927;DHT22;20485;50.992;5.550;2022-08-18T05:30:40;17.30;99.90
33927;DHT22;20485;50.992;5.550;2022-08-18T05:33:07;17.30;99.90
33927;DHT22;20485;50.992;5.550;2022-08-18T05:35:43;17.40;99.90
33927;DHT22;20485;50.992;5.550;2022-08-18T05:41:40;17.40;99.90
33927;DHT22;20485;50.992;5.550;2022-08-18T05:44:07;17.50;99.90
33927;DHT22;20485;50.992;5.550;2022-08-18T05:46:54;17.50;99.90
33927;DHT22;20485;50.992;5.550;2022-08-18T05:49:21;17.50;99.90
33927;DHT22;20485;50.992;5.550;2022-08-18T05:51:53;17.60;99.90
33927;DHT22;20485;50.992;5.550;2022-08-18T05:54:21;17.60;99.90
33927;DHT22;20485;50.992;5.550;2022-08-18T05:57:17;17.70;99.90
33927;DHT22;20485;50.992;5.550;2022-08-18T05:59:44;17.70;99.90
33927;DHT22;20485;50.992;5.550;2022-08-18T06:02:18;17.70;99.90
33927;DHT22;20485;50.992;5.550;2022-08-18T06:07:22;17.80;99.90
33927;DHT22;20485;50.992;5.550;2022-08-18T06:09:53;17.80;99.90
33927;DHT22;20485;50.992;5.550;2022-08-18T06:12:32;17.90;99.90
33927;DHT22;20485;50.992;5.550;2022-08-18T06:15:06;17.90;99.90
33927;DHT22;20485;50.992;5.550;2022-08-18T06:18:03;17.90;99.90
33927;DHT22;20485;50.992;5.550;2022-08-18T06:36:54;18.00;99.90
33927;DHT22;20485;50.992;5.550;2022-08-18T06:39:31;18.10;99.90
33927;DHT22;20485;50.992;5.550;2022-08-18T06:41:59;18.10;99.90
33927;DHT22;20485;50.992;5.550;2022-08-18T06:44:33;18.10;99.90
33927;DHT22;20485;50.992;5.550;2022-08-18T06:50:14;18.10;99.90
33927;DHT22;20485;50.992;5.550;2022-08-18T06:52:56;18.10;99.90
33927;DHT22;20485;50.992;5.550;2022-08-18T06:55:38;18.10;99.90
33927;DHT22;20485;50.992;5.550;2022-08-18T07:44:34;18.70;99.90
33927;DHT22;20485;50.992;5.550;2022-08-18T07:49:40;18.80;99.90
33927;DHT22;20485;50.992;5.550;2022-08-18T07:52:20;18.80;99.90
33927;DHT22;20485;50.992;5.550;2022-08-18T07:55:03;18.80;99.90
33927;DHT22;20485;50.992;5.550;2022-08-18T07:57:59;19.00;99.90
33927;DHT22;20485;50.992;5.550;2022-08-18T08:00:34;19.20;99.90
33927;DHT22;20485;50.992;5.550;2022-08-18T08:11:24;19.50;99.90
33927;DHT22;20485;50.992;5.550;2022-08-18T08:14:31;19.50;99.90
33927;DHT22;20485;50.992;5.550;2022-08-18T08:22:30;19.80;99.90
33927;DHT22;20485;50.992;5.550;2022-08-18T08:25:15;19.50;99.90
33927;DHT22;20485;50.992;5.550;2022-08-18T08:28:05;19.50;99.90
33927;DHT22;20485;50.992;5.550;2022-08-18T08:30:40;19.50;99.90
33927;DHT22;20485;50.992;5.550;2022-08-18T08:33:30;19.50;99.90
33927;DHT22;20485;50.992;5.550;2022-08-18T08:36:22;19.60;99.90
33927;DHT22;20485;50.992;5.550;2022-08-18T08:39:18;19.70;99.90
33927;DHT22;20485;50.992;5.550;2022-08-18T08:42:05;19.80;99.90
33927;DHT22;20485;50.992;5.550;2022-08-18T08:44:41;19.80;99.90
33927;DHT22;20485;50.992;5.550;2022-08-18T08:49:41;20.00;99.90
33927;DHT22;20485;50.992;5.550;2022-08-18T08:53:07;20.00;99.90
33927;DHT22;20485;50.992;5.550;2022-08-18T08:55:48;20.10;99.90
33927;DHT22;20485;50.992;5.550;2022-08-18T09:00:53;20.30;99.90
33927;DHT22;20485;50.992;5.550;2022-08-18T09:03:44;20.50;99.90
33927;DHT22;20485;50.992;5.550;2022-08-18T09:14:59;21.10;99.90
33927;DHT22;20485;50.992;5.550;2022-08-18T09:23:22;21.50;99.90
33927;DHT22;20485;50.992;5.550;2022-08-18T09:25:51;21.50;99.90
33927;DHT22;20485;50.992;5.550;2022-08-18T09:28:43;21.60;99.90
33927;DHT22;20485;50.992;5.550;2022-08-18T09:31:17;21.40;99.90
33927;DHT22;20485;50.992;5.550;2022-08-18T09:34:08;21.60;99.90
33927;DHT22;20485;50.992;5.550;2022-08-18T09:37:03;21.80;99.90
